ADDS METAR Data INFO
IDs: Format: Raw Decoded Include TAF

Data at: 0213 UTC 17 Aug 2018

PAMB 170156Z AUTO 20007KT 10SM OVC046 16/06 A2998 RMK AO2 SLP157 T01560061 $
PAMB 170056Z AUTO 19007KT 10SM CLR 16/06 A2998 RMK AO2 SLP158 T01560061 $
PAMB 162356Z AUTO 17006KT 10SM FEW055 BKN065 15/06 A2999 RMK AO2 SLP161 T01500061 10156 20072 58005 $
PAMB 162256Z AUTO VRB05KT 10SM BKN120 15/05 A2999 RMK AO2 SLP164 T01500050 $
PAMB 162156Z AUTO 00000KT 10SM FEW060 BKN100 14/05 A3000 RMK AO2 SLP166 T01390050 $
PAMB 162056Z AUTO 14004KT 10SM FEW070 BKN100 13/06 A3000 RMK AO2 SLP166 T01330056 58000 $
PAMB 161956Z AUTO 00000KT 10SM FEW070 12/07 A3001 RMK AO2 SLP167 T01220072 $
PAMB 161856Z AUTO 18003KT 10SM FEW065 OVC095 10/08 A3001 RMK AO2 SLP168 T01000078 $
PAMB 161839Z AUTO 00000KT 10SM FEW006 BKN065 OVC095 08/07 A3000 RMK AO2 $
PAMB 161756Z AUTO 13004KT 10SM OVC070 08/07 A3000 RMK AO2 SLP166 T00780072 10078 20033 53000 $
PAMB 161656Z AUTO 06004KT 10SM OVC070 06/05 A3000 RMK AO2 SLP165 T00560050 $
PAMB 161556Z AUTO 32004KT 9SM OVC065 04/04 A3000 RMK AO2 SLP165 T00390039 $
PAMB 161538Z AUTO 00000KT 4SM BR OVC065 05/05 A3000 RMK AO2 $
PAMB 161534Z AUTO 00000KT 1 3/4SM BR OVC065 05/04 A3000 RMK AO2 $
PAMB 161521Z AUTO 00000KT 2 1/2SM BR OVC065 04/04 A3000 RMK AO2 $
PAMB 161506Z AUTO 10003KT 1 3/4SM BR OVC060 04/04 A3000 RMK AO2 $
PAMB 161456Z AUTO 07004KT 8SM OVC060 04/04 A3000 RMK AO2 SLP166 T00390039 51002 $
PAMB 161356Z AUTO 00000KT 10SM BKN065 04/04 A3000 RMK AO2 SLP165 T00390039 $
PAMB 161256Z AUTO 30009G15KT 260V020 10SM CLR 04/04 A3000 RMK AO2 SLP164 T00440039 $
PAMB 161156Z AUTO 00000KT 10SM CLR 06/04 A2999 RMK AO2 SLP163 70001 T00560044 10100 20056 53002 $
PAMB 161056Z AUTO VRB05G15KT 10SM CLR 06/04 A2999 RMK AO2 SLP162 T00610044 $
PAMB 160956Z AUTO 20005KT 10SM CLR 07/05 A2999 RMK AO2 SLP162 T00670050 $
PAMB 160856Z AUTO 24006KT 10SM CLR 07/06 A2999 RMK AO2 SLP161 T00720056 401280072 51007 $
PAMB 160756Z AUTO 28005KT 10SM CLR 08/06 A2998 RMK AO2 SLP160 T00780061 $
PAMB 160656Z AUTO 28003KT 10SM CLR 08/06 A2997 RMK AO2 SLP157 T00830061 $
PAMB 160556Z AUTO 25003KT 10SM CLR 10/07 A2997 RMK AO2 SLP155 60000 T01000067 10128 20100 53007 $
PAMB 160456Z AUTO 22004KT 10SM CLR 11/07 A2996 RMK AO2 SLP151 T01110072 $
PAMB 160356Z AUTO 24006KT 10SM CLR 12/06 A2995 RMK AO2 SLP150 T01170061 $
PAMB 160256Z AUTO 22008KT 10SM CLR 12/07 A2995 RMK AO2 SLP147 60000 T01220067 56001 $
PAMB 160156Z AUTO 21007KT 10SM FEW031 SCT041 12/07 A2995 RMK AO2 SLP148 T01220067 $
PAMB 160145Z AUTO 22006KT 10SM SCT025 SCT031 BKN043 12/07 A2995 RMK AO2 $
PAMB 160120Z AUTO 21010KT 10SM BKN023 OVC033 13/08 A2994 RMK AO2 $
PAMB 160056Z AUTO 21006KT 10SM SCT023 BKN030 OVC041 12/08 A2994 RMK AO2 RAB06E32 SLP146 P0000 T01220078 $
PAMB 160034Z AUTO 22007KT 10SM FEW019 BKN038 OVC046 12/08 A2995 RMK AO2 RAB06E32 P0000 $
PAMB 152356Z AUTO 19009KT 10SM BKN027 BKN035 OVC050 12/08 A2995 RMK AO2 SLP148 60000 T01220078 10128 20094 58000 $
PAMB 152256Z AUTO 15008G14KT 10SM BKN025 BKN035 OVC055 12/07 A2995 RMK AO2 SLP150 T01220067 $
PAMB 152210Z AUTO 19010G16KT 10SM SCT028 BKN036 BKN055 12/07 A2995 RMK AO2 $
PAMB 152156Z AUTO 16010KT 10SM BKN028 12/07 A2995 RMK AO2 RAB03E14 SLP149 P0000 T01220067 $
PAMB 152128Z AUTO 20008KT 160V230 10SM BKN023 OVC031 12/07 A2995 RMK AO2 RAB03E14 P0000 $
PAMB 152056Z AUTO 18005KT 9SM FEW019 OVC046 11/08 A2995 RMK AO2 RAB12E29 SLP149 P0000 60000 T01060078 53002 $
PAMB 152044Z AUTO 18006G16KT 10SM SCT019 SCT034 OVC048 11/07 A2995 RMK AO2 RAB12E29 P0000 $
PAMB 151956Z AUTO 19009KT 140V220 10SM SCT014 BKN019 OVC049 12/08 A2994 RMK AO2 SLP147 T01170083 $
PAMB 151948Z AUTO 21008G18KT 10SM BKN014 OVC049 11/09 A2994 RMK AO2 $
PAMB 151935Z AUTO 20010G17KT 110V230 10SM FEW014 SCT028 OVC049 11/08 A2995 RMK AO2 $
PAMB 151922Z AUTO 20012KT 10SM SCT012 BKN019 OVC049 10/08 A2995 RMK AO2 $
PAMB 151913Z AUTO 20011KT 10SM BKN014 BKN024 OVC055 10/08 A2995 RMK AO2 $
PAMB 151856Z AUTO 19007KT 170V250 10SM SCT010 BKN030 OVC055 11/08 A2995 RMK AO2 SLP148 T01060083 $
PAMB 151756Z AUTO VRB06KT 10SM BKN018 OVC026 09/08 A2994 RMK AO2 SLP147 60001 T00940083 10094 20089 53004 $
PAMB 151656Z AUTO 18008KT 10SM OVC021 09/09 A2994 RMK AO2 SLP144 T00890089 $
PAMB 151638Z AUTO 18008KT 9SM BKN021 BKN027 OVC049 09/09 A2993 RMK AO2 $
PAMB 151607Z AUTO 19006KT 7SM FEW010 SCT013 OVC049 09/08 A2993 RMK AO2 $
PAMB 151556Z AUTO 18008KT 8SM SCT010 BKN013 OVC049 09/08 A2993 RMK AO2 SLP142 T00890083 $
PAMB 151552Z AUTO 18007KT 8SM SCT010 BKN013 OVC022 09/08 A2993 RMK AO2 $
PAMB 151514Z AUTO 18007KT 7SM BKN022 OVC039 09/08 A2993 RMK AO2 $
PAMB 151456Z AUTO 18006KT 6SM BR FEW011 SCT033 OVC040 09/09 A2993 RMK AO2 RAB09E47 SLP143 P0001 60001 T00890089 56004 $
PAMB 151441Z AUTO 18006KT 8SM -RA SCT006 SCT024 OVC033 09/09 A2993 RMK AO2 RAB09 P0001 $